Time;durP1;ratioP1;P1;durP2;ratioP2;P2;SDS_P1;SDS_P2;PMS_P1;PMS_P2;Temp;Humidity;BMP_temperature;BMP_pressure;BME280_temperature;BME280_humidity;BME280_pressure;Samples;Min_cycle;Max_cycle;Signal;HPM_P1;HPM_P2
2023/08/08 00:01:39;;;;;;;2.22;0.80;;;;;;;;;;10173338;29;20466;-86
2023/08/08 00:06:45;;;;;;;0.47;0.43;;;;;;;;;;10162974;29;20055;-86
2023/08/08 00:11:49;;;;;;;0.53;0.40;;;;;;;;;;10156944;29;20083;-86
2023/08/08 00:16:56;;;;;;;0.50;0.50;;;;;;;;;;10175077;29;20540;-85
2023/08/08 00:22:01;;;;;;;0.80;0.60;;;;;;;;;;10169840;29;20048;-86
2023/08/08 00:27:05;;;;;;;0.70;0.57;;;;;;;;;;10153181;29;20067;-86
2023/08/08 00:32:09;;;;;;;0.57;0.40;;;;;;;;;;10168937;29;20133;-86
2023/08/08 00:37:15;;;;;;;0.52;0.50;;;;;;;;;;10171930;29;20386;-86
2023/08/08 00:42:19;;;;;;;0.75;0.60;;;;;;;;;;10120780;29;20122;-86
2023/08/08 00:47:27;;;;;;;0.75;0.60;;;;;;;;;;10116316;29;20057;-86
2023/08/08 00:52:36;;;;;;;0.60;0.60;;;;;;;;;;10120040;29;20084;-86
2023/08/08 00:57:41;;;;;;;0.40;0.40;;;;;;;;;;10125896;29;20060;-86
2023/08/08 01:02:46;;;;;;;0.88;0.40;;;;;;;;;;10112965;29;20063;-87
2023/08/08 01:07:56;;;;;;;0.52;0.43;;;;;;;;;;10116552;29;20060;-86
2023/08/08 01:13:05;;;;;;;3.42;0.75;;;;;;;;;;10119444;29;20048;-87
2023/08/08 01:18:11;;;;;;;0.52;0.52;;;;;;;;;;10127098;29;20112;-86
2023/08/08 01:23:25;;;;;;;1.95;0.45;;;;;;;;;;10116140;29;20136;-86
2023/08/08 01:28:33;;;;;;;0.60;0.60;;;;;;;;;;10116002;29;20075;-87
2023/08/08 01:33:37;;;;;;;1.38;0.63;;;;;;;;;;10115458;29;20053;-86
2023/08/08 01:38:44;;;;;;;1.15;0.47;;;;;;;;;;10125883;29;20057;-85
2023/08/08 01:43:50;;;;;;;0.80;0.80;;;;;;;;;;10146087;29;20308;-86
2023/08/08 01:48:54;;;;;;;0.60;0.50;;;;;;;;;;10160134;29;20056;-86
2023/08/08 01:53:59;;;;;;;1.13;0.57;;;;;;;;;;10160436;29;20044;-87
2023/08/08 01:59:05;;;;;;;0.60;0.50;;;;;;;;;;10165321;29;20106;-87
2023/08/08 02:04:09;;;;;;;1.80;0.65;;;;;;;;;;10166699;29;20044;-87
2023/08/08 02:09:14;;;;;;;4.00;0.63;;;;;;;;;;10168316;29;20116;-86
2023/08/08 02:14:20;;;;;;;1.47;0.50;;;;;;;;;;10169828;29;20416;-86
2023/08/08 02:19:24;;;;;;;;;;;;;;;;;;10181747;29;20424;-86
2023/08/08 02:24:30;;;;;;;0.63;0.55;;;;;;;;;;10169560;29;19922;-86
2023/08/08 02:29:36;;;;;;;0.47;0.47;;;;;;;;;;10165591;29;20039;-87
2023/08/08 02:34:41;;;;;;;0.60;0.50;;;;;;;;;;10171995;29;20339;-86
2023/08/08 02:39:46;;;;;;;0.65;0.57;;;;;;;;;;10167600;29;20048;-86
2023/08/08 02:44:53;;;;;;;2.35;0.47;;;;;;;;;;10170168;29;20127;-86
2023/08/08 02:49:59;;;;;;;0.70;0.60;;;;;;;;;;10169639;29;20043;-86
2023/08/08 02:55:06;;;;;;;0.93;0.57;;;;;;;;;;10165964;29;20112;-86
2023/08/08 03:00:13;;;;;;;0.50;0.50;;;;;;;;;;10174898;29;20323;-86
2023/08/08 03:05:21;;;;;;;1.50;0.50;;;;;;;;;;10164343;29;20130;-86
2023/08/08 03:10:26;;;;;;;0.90;0.60;;;;;;;;;;10173647;29;20676;-86
2023/08/08 03:15:35;;;;;;;0.88;0.52;;;;;;;;;;10163823;29;20055;-87
2023/08/08 03:20:51;;;;;;;2.25;0.65;;;;;;;;;;10165410;29;20575;-87
2023/08/08 03:26:10;;;;;;;0.70;0.55;;;;;;;;;;10173444;29;20045;-86
2023/08/08 03:31:16;;;;;;;0.60;0.60;;;;;;;;;;10186045;29;20051;-87
2023/08/08 03:36:21;;;;;;;1.63;0.60;;;;;;;;;;10167910;29;20052;-86
2023/08/08 03:41:33;;;;;;;0.70;0.50;;;;;;;;;;10166631;29;20048;-87
2023/08/08 03:46:38;;;;;;;0.75;0.50;;;;;;;;;;10139241;29;20068;-82
2023/08/08 03:51:42;;;;;;;2.13;0.70;;;;;;;;;;10149357;29;20052;-81
2023/08/08 03:56:45;;;;;;;1.58;0.50;;;;;;;;;;10146973;29;20440;-82
2023/08/08 04:01:50;;;;;;;1.58;0.50;;;;;;;;;;10157110;29;20516;-81
2023/08/08 04:06:53;;;;;;;0.63;0.63;;;;;;;;;;10136933;29;20056;-81
2023/08/08 04:11:56;;;;;;;0.38;0.38;;;;;;;;;;10136013;29;20052;-80
2023/08/08 04:17:02;;;;;;;0.75;0.60;;;;;;;;;;10151267;29;20056;-84
2023/08/08 04:22:06;;;;;;;0.82;0.80;;;;;;;;;;10150724;29;20048;-83
2023/08/08 04:27:09;;;;;;;1.42;0.55;;;;;;;;;;10134380;29;20054;-83
2023/08/08 04:32:14;;;;;;;0.55;0.43;;;;;;;;;;10133225;29;20117;-83
2023/08/08 04:37:17;;;;;;;1.02;0.50;;;;;;;;;;10122814;29;20072;-83
2023/08/08 04:42:21;;;;;;;1.05;0.68;;;;;;;;;;10140357;29;20044;-83
2023/08/08 04:47:25;;;;;;;2.15;0.60;;;;;;;;;;10137202;29;20405;-81
2023/08/08 04:52:29;;;;;;;0.88;0.57;;;;;;;;;;10127411;29;20074;-80
2023/08/08 04:57:34;;;;;;;0.70;0.50;;;;;;;;;;10153043;29;20056;-80
2023/08/08 05:02:40;;;;;;;1.58;0.70;;;;;;;;;;10139218;29;20108;-82
2023/08/08 05:07:44;;;;;;;;;;;;;;;;;;10139545;29;20056;-82
2023/08/08 05:12:47;;;;;;;0.90;0.60;;;;;;;;;;10144856;29;20571;-82
2023/08/08 05:17:53;;;;;;;1.25;0.50;;;;;;;;;;10161823;29;20076;-82
2023/08/08 05:22:57;;;;;;;0.80;0.50;;;;;;;;;;10162464;29;20069;-82
2023/08/08 05:28:00;;;;;;;0.47;0.40;;;;;;;;;;10137228;29;20079;-81
2023/08/08 05:33:05;;;;;;;0.63;0.52;;;;;;;;;;10150120;29;20060;-82
2023/08/08 05:38:08;;;;;;;0.60;0.60;;;;;;;;;;10129029;29;20061;-81
2023/08/08 05:43:16;;;;;;;0.93;0.63;;;;;;;;;;10141567;29;20083;-81
2023/08/08 05:48:21;;;;;;;0.50;0.50;;;;;;;;;;10168804;29;20048;-82
2023/08/08 05:53:24;;;;;;;0.35;0.35;;;;;;;;;;10135990;29;20083;-81
2023/08/08 05:58:28;;;;;;;0.43;0.30;;;;;;;;;;10139746;29;20079;-82
2023/08/08 06:03:32;;;;;;;0.70;0.45;;;;;;;;;;10158825;29;20051;-81
2023/08/08 06:08:36;;;;;;;0.65;0.40;;;;;;;;;;10159368;29;20087;-81
2023/08/08 06:13:39;;;;;;;0.90;0.40;;;;;;;;;;10154425;29;20063;-81
2023/08/08 06:18:44;;;;;;;0.70;0.47;;;;;;;;;;10153855;29;20520;-80
2023/08/08 06:23:49;;;;;;;0.93;0.38;;;;;;;;;;10146088;29;20716;-82
2023/08/08 06:28:52;;;;;;;1.77;0.70;;;;;;;;;;10158239;29;20067;-82
2023/08/08 06:33:57;;;;;;;1.35;0.70;;;;;;;;;;10138887;29;20049;-82
2023/08/08 06:39:00;;;;;;;1.70;0.70;;;;;;;;;;10126141;29;20060;-82
2023/08/08 06:44:03;;;;;;;1.15;0.88;;;;;;;;;;10145205;29;20083;-82
2023/08/08 06:49:09;;;;;;;1.42;0.65;;;;;;;;;;10163143;29;20760;-81
2023/08/08 06:54:12;;;;;;;3.23;1.03;;;;;;;;;;10134247;29;20057;-82
2023/08/08 06:59:15;;;;;;;1.92;0.80;;;;;;;;;;10147944;29;20156;-81
2023/08/08 07:04:22;;;;;;;1.67;0.70;;;;;;;;;;10156283;29;20112;-82
2023/08/08 07:09:25;;;;;;;1.55;0.63;;;;;;;;;;10153962;29;20064;-81
2023/08/08 07:14:28;;;;;;;1.55;0.95;;;;;;;;;;10158559;29;20124;-82
2023/08/08 07:19:33;;;;;;;1.02;0.68;;;;;;;;;;10157331;29;20119;-83
2023/08/08 07:24:38;;;;;;;3.20;0.90;;;;;;;;;;10140057;29;20120;-82
2023/08/08 07:29:42;;;;;;;2.45;1.23;;;;;;;;;;10149119;29;20108;-82
2023/08/08 07:34:47;;;;;;;2.22;1.08;;;;;;;;;;10141316;29;20593;-82
2023/08/08 07:39:52;;;;;;;1.63;1.00;;;;;;;;;;10139751;29;20423;-84
2023/08/08 07:44:57;;;;;;;3.15;1.20;;;;;;;;;;10135444;29;20144;-83
2023/08/08 07:50:02;;;;;;;2.33;1.10;;;;;;;;;;10140420;29;20111;-82
2023/08/08 07:55:06;;;;;;;3.13;1.02;;;;;;;;;;10150548;29;20315;-82
2023/08/08 08:00:14;;;;;;;1.92;0.90;;;;;;;;;;10123039;29;20052;-82
2023/08/08 08:05:19;;;;;;;3.45;1.05;;;;;;;;;;10127025;29;20144;-82
2023/08/08 08:10:22;;;;;;;2.28;0.90;;;;;;;;;;10120342;29;20104;-83
2023/08/08 08:15:25;;;;;;;2.30;0.95;;;;;;;;;;10143860;29;20100;-83
2023/08/08 08:20:30;;;;;;;3.13;1.00;;;;;;;;;;10144050;29;20059;-81
2023/08/08 08:25:33;;;;;;;2.15;1.02;;;;;;;;;;10157673;29;20060;-82
2023/08/08 08:30:39;;;;;;;3.42;1.77;;;;;;;;;;10126753;29;20173;-82
2023/08/08 08:35:43;;;;;;;3.50;1.57;;;;;;;;;;10148743;29;20064;-82
2023/08/08 08:40:48;;;;;;;;;;;;;;;;;;10119402;29;20049;-82
2023/08/08 08:45:54;;;;;;;2.33;0.95;;;;;;;;;;10134755;29;20038;-82
2023/08/08 08:50:59;;;;;;;3.20;1.23;;;;;;;;;;10149531;29;20163;-83
2023/08/08 08:56:03;;;;;;;4.13;1.37;;;;;;;;;;10128554;29;20770;-83
2023/08/08 09:01:07;;;;;;;2.97;1.30;;;;;;;;;;10161437;29;20086;-82
2023/08/08 09:06:13;;;;;;;2.80;1.20;;;;;;;;;;10148281;29;20079;-82
2023/08/08 09:11:16;;;;;;;1.83;1.17;;;;;;;;;;10141314;29;20076;-82
2023/08/08 09:16:19;;;;;;;2.10;1.13;;;;;;;;;;10143927;29;20052;-82
2023/08/08 09:21:24;;;;;;;2.53;1.52;;;;;;;;;;10163918;29;20071;-84
2023/08/08 09:26:28;;;;;;;2.33;1.40;;;;;;;;;;10160759;29;20120;-84
2023/08/08 09:31:32;;;;;;;2.33;1.30;;;;;;;;;;10148361;29;20080;-83
2023/08/08 09:36:37;;;;;;;2.97;1.70;;;;;;;;;;10145304;29;20049;-83
2023/08/08 09:41:41;;;;;;;2.83;0.90;;;;;;;;;;10151251;29;20478;-84
2023/08/08 09:46:47;;;;;;;1.90;0.90;;;;;;;;;;10167086;29;20535;-82
2023/08/08 09:51:52;;;;;;;2.63;1.38;;;;;;;;;;10153757;29;20563;-84
2023/08/08 09:56:56;;;;;;;4.30;1.63;;;;;;;;;;10142413;29;20064;-82
2023/08/08 10:02:01;;;;;;;1.77;1.00;;;;;;;;;;10143451;29;20148;-80
2023/08/08 10:07:05;;;;;;;4.57;1.38;;;;;;;;;;10143696;29;20112;-82
2023/08/08 10:12:12;;;;;;;3.72;1.45;;;;;;;;;;10137562;29;20528;-82
2023/08/08 10:17:15;;;;;;;;;;;;;;;;;;10162519;29;20554;-82
2023/08/08 10:22:24;;;;;;;4.28;1.30;;;;;;;;;;10133160;29;19962;-82
2023/08/08 10:27:33;;;;;;;3.63;1.58;;;;;;;;;;10166641;29;20431;-81
2023/08/08 10:32:41;;;;;;;2.80;1.00;;;;;;;;;;10165866;29;20220;-82
2023/08/08 10:37:55;;;;;;;3.10;1.38;;;;;;;;;;10145280;29;20053;-82
2023/08/08 10:42:58;;;;;;;4.22;2.10;;;;;;;;;;10166385;29;20056;-81
2023/08/08 10:48:09;;;;;;;2.42;1.05;;;;;;;;;;10144132;29;20453;-83
2023/08/08 10:53:14;;;;;;;2.40;1.35;;;;;;;;;;10159756;29;20085;-83
2023/08/08 10:58:19;;;;;;;3.03;1.45;;;;;;;;;;10145585;29;20048;-83
2023/08/08 11:03:23;;;;;;;2.45;1.27;;;;;;;;;;10156260;29;20052;-81
2023/08/08 11:08:30;;;;;;;2.83;1.10;;;;;;;;;;10137003;29;20061;-82
2023/08/08 11:13:34;;;;;;;3.40;1.10;;;;;;;;;;10143472;29;20048;-82
2023/08/08 11:18:38;;;;;;;4.90;1.33;;;;;;;;;;10157060;29;20055;-83
2023/08/08 11:23:47;;;;;;;1.88;1.20;;;;;;;;;;10159454;29;20114;-82
2023/08/08 11:28:51;;;;;;;4.18;1.25;;;;;;;;;;10166795;29;20065;-83
2023/08/08 11:33:55;;;;;;;2.95;1.10;;;;;;;;;;10136349;29;20064;-83
2023/08/08 11:39:03;;;;;;;2.72;1.33;;;;;;;;;;10148615;29;20772;-82
2023/08/08 11:44:08;;;;;;;2.13;1.35;;;;;;;;;;10152405;29;20070;-82
2023/08/08 11:49:11;;;;;;;2.00;0.80;;;;;;;;;;10147009;29;20111;-82
2023/08/08 11:54:16;;;;;;;2.95;1.05;;;;;;;;;;10154419;29;20040;-83
2023/08/08 11:59:21;;;;;;;1.95;0.93;;;;;;;;;;10154301;29;20048;-82
2023/08/08 12:04:25;;;;;;;2.38;1.20;;;;;;;;;;10131052;29;20219;-83
2023/08/08 12:09:33;;;;;;;2.80;1.30;;;;;;;;;;10140539;29;20060;-82
2023/08/08 12:14:38;;;;;;;2.47;1.20;;;;;;;;;;10130753;29;20048;-81
2023/08/08 12:19:48;;;;;;;1.88;0.90;;;;;;;;;;10148041;29;20068;-83
2023/08/08 12:24:52;;;;;;;2.30;1.08;;;;;;;;;;10141295;29;20048;-82
2023/08/08 12:29:56;;;;;;;2.47;1.23;;;;;;;;;;10139739;29;20083;-82
2023/08/08 12:34:59;;;;;;;2.60;1.10;;;;;;;;;;10151048;29;20119;-82
2023/08/08 12:40:06;;;;;;;1.63;0.98;;;;;;;;;;10130286;29;20079;-82
2023/08/08 12:45:10;;;;;;;2.95;1.30;;;;;;;;;;10130005;29;20123;-81
2023/08/08 12:50:15;;;;;;;0.93;0.70;;;;;;;;;;10126816;29;20048;-82
2023/08/08 12:55:21;;;;;;;2.35;1.00;;;;;;;;;;10159818;23;20134;-87
2023/08/08 13:00:25;;;;;;;2.45;1.30;;;;;;;;;;10164798;29;20075;-86
2023/08/08 13:05:29;;;;;;;1.67;1.10;;;;;;;;;;10176807;29;20064;-87
2023/08/08 13:10:34;;;;;;;1.95;1.00;;;;;;;;;;10160266;29;20040;-86
2023/08/08 13:15:38;;;;;;;2.95;0.90;;;;;;;;;;10160027;29;20072;-85
2023/08/08 13:20:42;;;;;;;2.75;0.80;;;;;;;;;;10181498;29;20158;-87
2023/08/08 13:25:49;;;;;;;2.75;0.90;;;;;;;;;;10187919;29;20132;-87
2023/08/08 13:30:54;;;;;;;1.88;0.70;;;;;;;;;;10184135;29;20119;-88
2023/08/08 13:35:59;;;;;;;2.05;1.00;;;;;;;;;;10164157;29;20525;-87
2023/08/08 13:41:04;;;;;;;2.45;0.70;;;;;;;;;;10161064;29;20071;-86
2023/08/08 13:46:09;;;;;;;1.65;0.63;;;;;;;;;;10170134;29;20604;-87
2023/08/08 13:51:13;;;;;;;1.40;0.88;;;;;;;;;;10168053;29;20076;-87
2023/08/08 13:56:19;;;;;;;2.25;1.08;;;;;;;;;;10165523;29;20048;-88
2023/08/08 14:01:23;;;;;;;3.45;0.93;;;;;;;;;;10167467;29;20052;-85
2023/08/08 14:06:27;;;;;;;1.77;0.90;;;;;;;;;;10168713;29;20100;-86
2023/08/08 14:11:32;;;;;;;2.03;0.70;;;;;;;;;;10187134;29;20087;-89
2023/08/08 14:16:40;;;;;;;0.70;0.63;;;;;;;;;;10172694;29;20040;-87
2023/08/08 14:21:44;;;;;;;2.28;0.80;;;;;;;;;;10213018;29;20547;-85
2023/08/08 14:26:49;;;;;;;2.83;0.90;;;;;;;;;;10159291;29;20074;-85
2023/08/08 14:31:53;;;;;;;3.30;1.00;;;;;;;;;;10162998;29;20052;-86
2023/08/08 14:37:05;;;;;;;1.95;0.90;;;;;;;;;;10154938;29;20051;-85
2023/08/08 14:42:10;;;;;;;1.50;0.60;;;;;;;;;;10172037;29;20151;-84
2023/08/08 14:47:14;;;;;;;1.55;0.60;;;;;;;;;;10181912;29;20683;-85
2023/08/08 14:52:25;;;;;;;2.35;0.70;;;;;;;;;;10212234;29;20140;-84
2023/08/08 14:57:36;;;;;;;2.60;0.90;;;;;;;;;;10180442;29;20048;-83
2023/08/08 15:02:43;;;;;;;1.88;1.00;;;;;;;;;;10153986;29;20644;-84
2023/08/08 15:07:47;;;;;;;2.38;0.98;;;;;;;;;;10186090;29;20115;-85
2023/08/08 15:12:55;;;;;;;2.10;0.80;;;;;;;;;;10168597;29;20067;-85
2023/08/08 15:17:59;;;;;;;2.00;1.35;;;;;;;;;;10154065;29;20128;-87
2023/08/08 15:23:04;;;;;;;3.30;1.00;;;;;;;;;;10152646;29;20168;-84
2023/08/08 15:28:09;;;;;;;2.45;1.00;;;;;;;;;;10170532;29;20156;-85
2023/08/08 15:33:13;;;;;;;;;;;;;;;;;;10188143;29;20048;-86
2023/08/08 15:38:19;;;;;;;2.05;0.93;;;;;;;;;;10192720;29;20352;-86
2023/08/08 15:43:28;;;;;;;3.88;1.10;;;;;;;;;;10209594;29;20142;-84
2023/08/08 15:48:33;;;;;;;1.33;0.68;;;;;;;;;;10209339;29;20262;-86
2023/08/08 15:53:45;;;;;;;2.72;1.13;;;;;;;;;;10191512;29;20107;-84
2023/08/08 15:58:50;;;;;;;4.50;1.60;;;;;;;;;;10191222;29;20048;-85
2023/08/08 16:03:54;;;;;;;2.37;0.90;;;;;;;;;;10191869;29;20078;-84
2023/08/08 16:08:58;;;;;;;2.80;0.93;;;;;;;;;;10183750;29;20043;-85
2023/08/08 16:14:03;;;;;;;1.45;0.73;;;;;;;;;;10166021;29;20437;-85
2023/08/08 16:19:07;;;;;;;2.25;0.82;;;;;;;;;;10175037;29;20044;-85
2023/08/08 16:24:11;;;;;;;1.40;1.00;;;;;;;;;;10159914;29;20143;-85
2023/08/08 16:29:16;;;;;;;1.88;0.70;;;;;;;;;;10155149;29;20056;-85
2023/08/08 16:34:21;;;;;;;3.72;0.88;;;;;;;;;;10161170;29;20048;-84
2023/08/08 16:39:24;;;;;;;3.83;1.50;;;;;;;;;;10150962;29;20044;-84
2023/08/08 16:44:30;;;;;;;1.92;0.80;;;;;;;;;;10195146;29;20056;-85
2023/08/08 16:49:35;;;;;;;4.40;0.88;;;;;;;;;;10193874;29;20052;-85
2023/08/08 16:54:40;;;;;;;1.38;0.88;;;;;;;;;;10163209;29;20060;-85
2023/08/08 16:59:48;;;;;;;1.27;0.60;;;;;;;;;;10186523;29;20544;-85
2023/08/08 17:04:52;;;;;;;1.15;0.50;;;;;;;;;;10159033;29;20052;-85
2023/08/08 17:09:56;;;;;;;2.28;0.65;;;;;;;;;;10166617;29;20087;-85
2023/08/08 17:15:01;;;;;;;1.63;0.60;;;;;;;;;;10149202;29;20148;-86
2023/08/08 17:20:09;;;;;;;1.33;0.60;;;;;;;;;;10149705;29;20184;-84
2023/08/08 17:25:14;;;;;;;1.63;0.70;;;;;;;;;;10149233;29;20059;-85
2023/08/08 17:30:19;;;;;;;3.50;0.70;;;;;;;;;;10158326;29;20052;-85
2023/08/08 17:35:26;;;;;;;1.38;0.50;;;;;;;;;;10183213;29;20131;-85
2023/08/08 17:40:31;;;;;;;2.13;1.23;;;;;;;;;;10179317;29;20079;-85
2023/08/08 17:45:36;;;;;;;1.50;0.70;;;;;;;;;;10165366;29;20062;-85
2023/08/08 17:50:41;;;;;;;1.42;0.57;;;;;;;;;;10197146;29;20063;-85
2023/08/08 17:55:49;;;;;;;3.00;0.88;;;;;;;;;;10186270;29;20071;-85
2023/08/08 18:00:54;;;;;;;1.30;0.57;;;;;;;;;;10180427;29;20068;-85
2023/08/08 18:05:58;;;;;;;1.80;0.70;;;;;;;;;;10187005;29;20076;-85
2023/08/08 18:11:02;;;;;;;1.13;0.55;;;;;;;;;;10163692;29;20333;-85
2023/08/08 18:16:09;;;;;;;1.80;0.57;;;;;;;;;;10155658;29;20052;-85
2023/08/08 18:21:14;;;;;;;3.33;1.00;;;;;;;;;;10164676;29;20504;-84
2023/08/08 18:26:18;;;;;;;3.03;0.77;;;;;;;;;;10160848;29;20078;-85
2023/08/08 18:31:23;;;;;;;1.05;0.60;;;;;;;;;;10155559;29;20044;-85
2023/08/08 18:36:27;;;;;;;2.20;1.00;;;;;;;;;;10164283;29;20431;-84
2023/08/08 18:41:31;;;;;;;3.35;1.00;;;;;;;;;;10211403;29;20084;-85
2023/08/08 18:46:36;;;;;;;1.33;0.60;;;;;;;;;;10211099;29;20123;-85
2023/08/08 18:51:42;;;;;;;1.75;0.85;;;;;;;;;;10206185;29;20567;-85
2023/08/08 18:56:46;;;;;;;2.10;0.88;;;;;;;;;;10181514;29;20051;-85
